sensor_id;sensor_type;location;lat;lon;timestamp;temperature;humidity
23083;DHT22;11709;52.420;10.538;2022-12-07T00:00:33;2.70;99.90
23083;DHT22;11709;52.420;10.538;2022-12-07T00:04:36;2.70;99.90
23083;DHT22;11709;52.420;10.538;2022-12-07T00:08:38;2.80;99.90
23083;DHT22;11709;52.420;10.538;2022-12-07T00:12:41;2.80;99.90
23083;DHT22;11709;52.420;10.538;2022-12-07T00:16:44;2.80;99.90
23083;DHT22;11709;52.420;10.538;2022-12-07T00:20:46;2.90;99.90
23083;DHT22;11709;52.420;10.538;2022-12-07T00:24:49;2.90;99.90
23083;DHT22;11709;52.420;10.538;2022-12-07T00:28:54;2.90;99.90
23083;DHT22;11709;52.420;10.538;2022-12-07T00:32:56;3.00;99.90
23083;DHT22;11709;52.420;10.538;2022-12-07T00:36:59;3.00;99.90
23083;DHT22;11709;52.420;10.538;2022-12-07T00:41:04;3.00;99.90
23083;DHT22;11709;52.420;10.538;2022-12-07T00:45:07;3.10;99.90
23083;DHT22;11709;52.420;10.538;2022-12-07T00:49:10;3.20;99.90
23083;DHT22;11709;52.420;10.538;2022-12-07T00:53:13;3.20;99.90
23083;DHT22;11709;52.420;10.538;2022-12-07T00:57:15;3.30;99.90
23083;DHT22;11709;52.420;10.538;2022-12-07T01:01:18;3.30;99.90
23083;DHT22;11709;52.420;10.538;2022-12-07T01:05:20;3.40;99.90
23083;DHT22;11709;52.420;10.538;2022-12-07T01:09:23;3.40;99.90
23083;DHT22;11709;52.420;10.538;2022-12-07T01:13:25;3.40;99.90
23083;DHT22;11709;52.420;10.538;2022-12-07T01:17:29;3.50;99.90
23083;DHT22;11709;52.420;10.538;2022-12-07T01:21:33;3.50;99.90
23083;DHT22;11709;52.420;10.538;2022-12-07T01:25:37;3.50;99.90
23083;DHT22;11709;52.420;10.538;2022-12-07T01:29:39;3.50;99.90
23083;DHT22;11709;52.420;10.538;2022-12-07T01:33:46;3.50;99.90
23083;DHT22;11709;52.420;10.538;2022-12-07T01:37:49;3.60;99.90
23083;DHT22;11709;52.420;10.538;2022-12-07T01:41:52;3.60;99.90
23083;DHT22;11709;52.420;10.538;2022-12-07T01:45:54;3.60;99.90
23083;DHT22;11709;52.420;10.538;2022-12-07T01:49:57;3.60;99.90
23083;DHT22;11709;52.420;10.538;2022-12-07T01:54:00;3.60;99.90
23083;DHT22;11709;52.420;10.538;2022-12-07T01:58:03;3.70;99.90
23083;DHT22;11709;52.420;10.538;2022-12-07T02:02:08;3.70;99.90
23083;DHT22;11709;52.420;10.538;2022-12-07T02:06:14;3.70;99.90
23083;DHT22;11709;52.420;10.538;2022-12-07T02:10:28;3.30;99.90
23083;DHT22;11709;52.420;10.538;2022-12-07T02:14:31;3.70;99.90
23083;DHT22;11709;52.420;10.538;2022-12-07T02:23:21;3.80;99.90
23083;DHT22;11709;52.420;10.538;2022-12-07T02:27:46;3.80;99.90
23083;DHT22;11709;52.420;10.538;2022-12-07T02:32:10;3.80;99.90
23083;DHT22;11709;52.420;10.538;2022-12-07T02:35:57;3.80;99.90
23083;DHT22;11709;52.420;10.538;2022-12-07T02:40:15;3.90;99.90
23083;DHT22;11709;52.420;10.538;2022-12-07T02:44:16;3.90;99.90
23083;DHT22;11709;52.420;10.538;2022-12-07T02:48:19;3.90;99.90
23083;DHT22;11709;52.420;10.538;2022-12-07T02:52:22;3.90;99.90
23083;DHT22;11709;52.420;10.538;2022-12-07T02:56:50;3.90;99.90
23083;DHT22;11709;52.420;10.538;2022-12-07T03:01:12;4.00;99.90
23083;DHT22;11709;52.420;10.538;2022-12-07T03:09:40;4.00;99.90
23083;DHT22;11709;52.420;10.538;2022-12-07T03:14:02;4.00;99.90
23083;DHT22;11709;52.420;10.538;2022-12-07T03:18:05;4.00;99.90
23083;DHT22;11709;52.420;10.538;2022-12-07T03:22:11;4.10;99.90
23083;DHT22;11709;52.420;10.538;2022-12-07T03:26:15;4.10;99.90
23083;DHT22;11709;52.420;10.538;2022-12-07T03:30:27;3.50;99.90
23083;DHT22;11709;52.420;10.538;2022-12-07T03:34:46;4.10;99.90
23083;DHT22;11709;52.420;10.538;2022-12-07T03:38:54;4.20;99.90
23083;DHT22;11709;52.420;10.538;2022-12-07T03:42:57;4.20;99.90
23083;DHT22;11709;52.420;10.538;2022-12-07T03:47:23;4.20;99.90
23083;DHT22;11709;52.420;10.538;2022-12-07T03:51:32;4.20;99.90
23083;DHT22;11709;52.420;10.538;2022-12-07T03:55:38;4.20;99.90
23083;DHT22;11709;52.420;10.538;2022-12-07T03:59:42;4.20;99.90
23083;DHT22;11709;52.420;10.538;2022-12-07T04:03:45;4.20;99.90
23083;DHT22;11709;52.420;10.538;2022-12-07T04:07:47;4.20;99.90
23083;DHT22;11709;52.420;10.538;2022-12-07T04:11:50;4.20;99.90
23083;DHT22;11709;52.420;10.538;2022-12-07T04:15:52;4.20;99.90
23083;DHT22;11709;52.420;10.538;2022-12-07T04:19:55;4.20;99.90
23083;DHT22;11709;52.420;10.538;2022-12-07T04:23:57;4.20;99.90
23083;DHT22;11709;52.420;10.538;2022-12-07T04:28:00;4.20;99.90
23083;DHT22;11709;52.420;10.538;2022-12-07T04:32:02;4.20;99.90
23083;DHT22;11709;52.420;10.538;2022-12-07T04:36:05;4.20;99.90
23083;DHT22;11709;52.420;10.538;2022-12-07T04:40:08;4.20;99.90
23083;DHT22;11709;52.420;10.538;2022-12-07T04:44:13;4.10;99.90
23083;DHT22;11709;52.420;10.538;2022-12-07T04:48:16;4.10;99.90
23083;DHT22;11709;52.420;10.538;2022-12-07T04:52:18;4.10;99.90
23083;DHT22;11709;52.420;10.538;2022-12-07T04:56:22;4.10;99.90
23083;DHT22;11709;52.420;10.538;2022-12-07T05:00:24;4.90;99.90
23083;DHT22;11709;52.420;10.538;2022-12-07T05:04:27;4.00;99.90
23083;DHT22;11709;52.420;10.538;2022-12-07T05:08:29;4.00;99.90
23083;DHT22;11709;52.420;10.538;2022-12-07T05:12:32;3.90;99.90
23083;DHT22;11709;52.420;10.538;2022-12-07T05:16:35;3.90;99.90
23083;DHT22;11709;52.420;10.538;2022-12-07T05:20:37;3.90;99.90
23083;DHT22;11709;52.420;10.538;2022-12-07T05:24:40;3.90;99.90
23083;DHT22;11709;52.420;10.538;2022-12-07T05:28:42;3.90;99.90
23083;DHT22;11709;52.420;10.538;2022-12-07T05:32:45;3.90;99.90
23083;DHT22;11709;52.420;10.538;2022-12-07T05:36:47;3.90;99.90
23083;DHT22;11709;52.420;10.538;2022-12-07T05:40:50;3.80;99.90
23083;DHT22;11709;52.420;10.538;2022-12-07T05:44:53;3.80;99.90
23083;DHT22;11709;52.420;10.538;2022-12-07T05:48:55;3.80;99.90
23083;DHT22;11709;52.420;10.538;2022-12-07T05:52:58;3.80;99.90
23083;DHT22;11709;52.420;10.538;2022-12-07T05:57:00;3.80;99.90
23083;DHT22;11709;52.420;10.538;2022-12-07T06:01:03;3.70;99.90
23083;DHT22;11709;52.420;10.538;2022-12-07T06:05:06;3.70;99.90
23083;DHT22;11709;52.420;10.538;2022-12-07T06:09:08;3.70;99.90
23083;DHT22;11709;52.420;10.538;2022-12-07T06:13:11;3.70;99.90
23083;DHT22;11709;52.420;10.538;2022-12-07T06:17:13;3.70;99.90
23083;DHT22;11709;52.420;10.538;2022-12-07T06:21:16;3.70;99.90
23083;DHT22;11709;52.420;10.538;2022-12-07T06:25:19;3.70;99.90
23083;DHT22;11709;52.420;10.538;2022-12-07T06:29:21;3.70;99.90
23083;DHT22;11709;52.420;10.538;2022-12-07T06:33:24;3.80;99.90
23083;DHT22;11709;52.420;10.538;2022-12-07T06:37:26;3.70;99.90
23083;DHT22;11709;52.420;10.538;2022-12-07T06:41:29;3.80;99.90
23083;DHT22;11709;52.420;10.538;2022-12-07T06:45:32;3.70;99.90
23083;DHT22;11709;52.420;10.538;2022-12-07T06:49:34;3.70;99.90
23083;DHT22;11709;52.420;10.538;2022-12-07T06:53:37;3.60;99.90
23083;DHT22;11709;52.420;10.538;2022-12-07T06:57:40;3.70;99.90
23083;DHT22;11709;52.420;10.538;2022-12-07T07:01:42;3.60;99.90
23083;DHT22;11709;52.420;10.538;2022-12-07T07:05:45;3.60;99.90
23083;DHT22;11709;52.420;10.538;2022-12-07T07:09:47;3.50;99.90
23083;DHT22;11709;52.420;10.538;2022-12-07T07:13:50;3.60;99.90
23083;DHT22;11709;52.420;10.538;2022-12-07T07:17:52;3.50;99.90
23083;DHT22;11709;52.420;10.538;2022-12-07T07:26:15;3.40;99.90
23083;DHT22;11709;52.420;10.538;2022-12-07T07:30:17;3.40;99.90
23083;DHT22;11709;52.420;10.538;2022-12-07T07:34:20;3.40;99.90
23083;DHT22;11709;52.420;10.538;2022-12-07T07:38:22;3.40;99.90
23083;DHT22;11709;52.420;10.538;2022-12-07T07:42:25;3.40;99.90
23083;DHT22;11709;52.420;10.538;2022-12-07T07:46:27;3.50;99.90
23083;DHT22;11709;52.420;10.538;2022-12-07T07:50:30;3.20;99.90
23083;DHT22;11709;52.420;10.538;2022-12-07T07:54:32;3.50;99.90
23083;DHT22;11709;52.420;10.538;2022-12-07T07:58:35;3.50;99.90
23083;DHT22;11709;52.420;10.538;2022-12-07T08:02:38;3.50;99.90
23083;DHT22;11709;52.420;10.538;2022-12-07T08:06:40;3.50;99.90
23083;DHT22;11709;52.420;10.538;2022-12-07T08:10:43;3.50;99.90
23083;DHT22;11709;52.420;10.538;2022-12-07T08:14:46;3.50;99.90
23083;DHT22;11709;52.420;10.538;2022-12-07T08:18:48;3.50;99.90
23083;DHT22;11709;52.420;10.538;2022-12-07T08:22:51;3.60;99.90
23083;DHT22;11709;52.420;10.538;2022-12-07T08:26:53;3.60;99.90
23083;DHT22;11709;52.420;10.538;2022-12-07T08:31:00;3.60;99.90
23083;DHT22;11709;52.420;10.538;2022-12-07T08:35:02;3.60;99.90
23083;DHT22;11709;52.420;10.538;2022-12-07T08:39:05;3.60;99.90
23083;DHT22;11709;52.420;10.538;2022-12-07T08:43:07;3.60;99.90
23083;DHT22;11709;52.420;10.538;2022-12-07T08:47:10;3.60;99.90
23083;DHT22;11709;52.420;10.538;2022-12-07T08:51:13;3.70;99.90
23083;DHT22;11709;52.420;10.538;2022-12-07T08:55:16;3.70;99.90
23083;DHT22;11709;52.420;10.538;2022-12-07T08:59:19;3.70;99.90
23083;DHT22;11709;52.420;10.538;2022-12-07T09:03:22;3.70;99.90
23083;DHT22;11709;52.420;10.538;2022-12-07T09:07:25;3.70;99.90
23083;DHT22;11709;52.420;10.538;2022-12-07T09:11:28;3.80;99.90
23083;DHT22;11709;52.420;10.538;2022-12-07T09:15:31;3.90;99.90
23083;DHT22;11709;52.420;10.538;2022-12-07T09:19:33;3.90;99.90
23083;DHT22;11709;52.420;10.538;2022-12-07T09:23:36;4.00;99.90
23083;DHT22;11709;52.420;10.538;2022-12-07T09:27:39;4.10;99.90
23083;DHT22;11709;52.420;10.538;2022-12-07T09:31:41;4.10;99.90
23083;DHT22;11709;52.420;10.538;2022-12-07T09:35:47;4.10;99.90
23083;DHT22;11709;52.420;10.538;2022-12-07T09:39:50;4.10;99.90
23083;DHT22;11709;52.420;10.538;2022-12-07T09:43:53;4.10;99.90
23083;DHT22;11709;52.420;10.538;2022-12-07T09:47:58;4.00;99.90
23083;DHT22;11709;52.420;10.538;2022-12-07T09:52:03;4.00;99.90
23083;DHT22;11709;52.420;10.538;2022-12-07T09:56:06;4.00;99.90
23083;DHT22;11709;52.420;10.538;2022-12-07T10:00:14;4.00;99.90
23083;DHT22;11709;52.420;10.538;2022-12-07T10:04:24;4.00;99.90
23083;DHT22;11709;52.420;10.538;2022-12-07T10:08:28;4.00;99.90
23083;DHT22;11709;52.420;10.538;2022-12-07T10:12:30;4.10;99.90
23083;DHT22;11709;52.420;10.538;2022-12-07T10:16:41;4.00;99.90
23083;DHT22;11709;52.420;10.538;2022-12-07T10:20:48;4.00;99.90
23083;DHT22;11709;52.420;10.538;2022-12-07T10:24:50;4.10;99.90
23083;DHT22;11709;52.420;10.538;2022-12-07T10:28:52;4.20;99.90
23083;DHT22;11709;52.420;10.538;2022-12-07T10:32:55;4.20;99.90
23083;DHT22;11709;52.420;10.538;2022-12-07T10:41:17;4.30;99.90
23083;DHT22;11709;52.420;10.538;2022-12-07T10:45:21;4.40;99.90
23083;DHT22;11709;52.420;10.538;2022-12-07T10:49:46;4.40;99.90
23083;DHT22;11709;52.420;10.538;2022-12-07T11:15:24;4.30;99.90
23083;DHT22;11709;52.420;10.538;2022-12-07T11:19:40;4.30;99.90
23083;DHT22;11709;52.420;10.538;2022-12-07T11:23:45;4.40;99.90
23083;DHT22;11709;52.420;10.538;2022-12-07T11:28:03;4.40;99.90
23083;DHT22;11709;52.420;10.538;2022-12-07T11:36:48;4.40;99.90
23083;DHT22;11709;52.420;10.538;2022-12-07T11:40:53;4.40;99.90
23083;DHT22;11709;52.420;10.538;2022-12-07T11:45:15;4.40;99.90
23083;DHT22;11709;52.420;10.538;2022-12-07T11:49:25;4.40;99.90
23083;DHT22;11709;52.420;10.538;2022-12-07T11:53:41;4.40;99.90
23083;DHT22;11709;52.420;10.538;2022-12-07T11:57:45;4.40;99.90
23083;DHT22;11709;52.420;10.538;2022-12-07T12:01:55;4.50;99.90
23083;DHT22;11709;52.420;10.538;2022-12-07T12:05:57;4.50;99.90
23083;DHT22;11709;52.420;10.538;2022-12-07T12:10:13;4.60;99.90
23083;DHT22;11709;52.420;10.538;2022-12-07T12:18:53;4.70;99.90
23083;DHT22;11709;52.420;10.538;2022-12-07T12:23:14;4.70;99.90
23083;DHT22;11709;52.420;10.538;2022-12-07T12:27:27;4.60;99.90
23083;DHT22;11709;52.420;10.538;2022-12-07T12:31:36;4.60;99.90
23083;DHT22;11709;52.420;10.538;2022-12-07T12:35:40;4.60;99.90
23083;DHT22;11709;52.420;10.538;2022-12-07T12:40:11;4.70;99.90
23083;DHT22;11709;52.420;10.538;2022-12-07T12:43:51;4.80;99.90
23083;DHT22;11709;52.420;10.538;2022-12-07T12:48:26;4.80;99.90
23083;DHT22;11709;52.420;10.538;2022-12-07T13:01:33;5.20;99.90
23083;DHT22;11709;52.420;10.538;2022-12-07T13:05:34;5.10;99.90
23083;DHT22;11709;52.420;10.538;2022-12-07T13:09:39;5.10;99.90
23083;DHT22;11709;52.420;10.538;2022-12-07T13:13:43;5.00;99.90
23083;DHT22;11709;52.420;10.538;2022-12-07T13:17:57;5.10;99.90
23083;DHT22;11709;52.420;10.538;2022-12-07T13:22:00;5.00;99.90
23083;DHT22;11709;52.420;10.538;2022-12-07T13:30:27;4.90;99.90
23083;DHT22;11709;52.420;10.538;2022-12-07T13:34:37;4.90;99.90
23083;DHT22;11709;52.420;10.538;2022-12-07T13:38:39;4.80;99.90
23083;DHT22;11709;52.420;10.538;2022-12-07T13:42:44;4.70;99.90
23083;DHT22;11709;52.420;10.538;2022-12-07T13:46:56;4.80;99.90
23083;DHT22;11709;52.420;10.538;2022-12-07T13:50:59;4.70;99.90
23083;DHT22;11709;52.420;10.538;2022-12-07T13:55:12;4.70;99.90
23083;DHT22;11709;52.420;10.538;2022-12-07T13:59:19;4.60;99.90
23083;DHT22;11709;52.420;10.538;2022-12-07T14:03:29;4.60;99.90
23083;DHT22;11709;52.420;10.538;2022-12-07T14:07:28;4.60;99.90
23083;DHT22;11709;52.420;10.538;2022-12-07T14:11:31;4.60;99.90
23083;DHT22;11709;52.420;10.538;2022-12-07T14:15:35;4.60;99.90
23083;DHT22;11709;52.420;10.538;2022-12-07T14:24:10;4.60;99.90
23083;DHT22;11709;52.420;10.538;2022-12-07T14:28:30;4.50;99.90
23083;DHT22;11709;52.420;10.538;2022-12-07T14:32:35;4.50;99.90
23083;DHT22;11709;52.420;10.538;2022-12-07T14:36:39;4.50;99.90
23083;DHT22;11709;52.420;10.538;2022-12-07T14:40:42;4.50;99.90
23083;DHT22;11709;52.420;10.538;2022-12-07T14:44:45;4.50;99.90
23083;DHT22;11709;52.420;10.538;2022-12-07T14:48:47;4.40;99.90
23083;DHT22;11709;52.420;10.538;2022-12-07T14:52:55;4.30;99.90
23083;DHT22;11709;52.420;10.538;2022-12-07T14:56:58;4.20;99.90
23083;DHT22;11709;52.420;10.538;2022-12-07T15:01:01;4.10;99.90
23083;DHT22;11709;52.420;10.538;2022-12-07T15:05:03;4.10;99.90
23083;DHT22;11709;52.420;10.538;2022-12-07T15:09:06;4.00;99.90
23083;DHT22;11709;52.420;10.538;2022-12-07T15:13:09;4.10;99.90
23083;DHT22;11709;52.420;10.538;2022-12-07T15:17:29;4.10;99.90
23083;DHT22;11709;52.420;10.538;2022-12-07T15:21:32;4.10;99.90
23083;DHT22;11709;52.420;10.538;2022-12-07T15:25:34;4.00;99.90
23083;DHT22;11709;52.420;10.538;2022-12-07T15:29:37;3.90;99.90
23083;DHT22;11709;52.420;10.538;2022-12-07T15:33:39;3.90;99.90
23083;DHT22;11709;52.420;10.538;2022-12-07T15:37:42;3.90;99.90
23083;DHT22;11709;52.420;10.538;2022-12-07T15:41:44;3.90;99.90
23083;DHT22;11709;52.420;10.538;2022-12-07T15:45:49;3.90;99.90
23083;DHT22;11709;52.420;10.538;2022-12-07T15:49:51;3.60;99.90
23083;DHT22;11709;52.420;10.538;2022-12-07T15:53:54;3.40;99.90
23083;DHT22;11709;52.420;10.538;2022-12-07T15:57:57;3.20;99.90
23083;DHT22;11709;52.420;10.538;2022-12-07T16:01:59;3.20;99.90
23083;DHT22;11709;52.420;10.538;2022-12-07T16:06:02;3.10;99.90
23083;DHT22;11709;52.420;10.538;2022-12-07T16:10:05;3.00;99.90
23083;DHT22;11709;52.420;10.538;2022-12-07T16:14:08;3.00;99.90
23083;DHT22;11709;52.420;10.538;2022-12-07T16:18:10;3.00;99.90
23083;DHT22;11709;52.420;10.538;2022-12-07T16:22:13;2.80;99.90
23083;DHT22;11709;52.420;10.538;2022-12-07T16:26:18;2.70;99.90
23083;DHT22;11709;52.420;10.538;2022-12-07T16:30:21;2.70;99.90
23083;DHT22;11709;52.420;10.538;2022-12-07T16:34:23;2.70;99.90
23083;DHT22;11709;52.420;10.538;2022-12-07T16:38:26;2.70;99.90
23083;DHT22;11709;52.420;10.538;2022-12-07T16:42:31;2.60;99.90
23083;DHT22;11709;52.420;10.538;2022-12-07T16:46:35;2.60;99.90
23083;DHT22;11709;52.420;10.538;2022-12-07T16:50:40;2.60;99.90
23083;DHT22;11709;52.420;10.538;2022-12-07T16:54:42;2.60;99.90
23083;DHT22;11709;52.420;10.538;2022-12-07T16:58:45;2.60;99.90
23083;DHT22;11709;52.420;10.538;2022-12-07T17:02:49;2.60;99.90
23083;DHT22;11709;52.420;10.538;2022-12-07T17:06:52;2.60;99.90
23083;DHT22;11709;52.420;10.538;2022-12-07T17:10:55;2.60;99.90
23083;DHT22;11709;52.420;10.538;2022-12-07T17:14:57;2.60;99.90
23083;DHT22;11709;52.420;10.538;2022-12-07T17:19:18;2.50;99.90
23083;DHT22;11709;52.420;10.538;2022-12-07T17:23:21;2.60;99.90
23083;DHT22;11709;52.420;10.538;2022-12-07T17:27:25;2.50;99.90
23083;DHT22;11709;52.420;10.538;2022-12-07T17:31:28;2.50;99.90
23083;DHT22;11709;52.420;10.538;2022-12-07T17:35:30;2.50;99.90
23083;DHT22;11709;52.420;10.538;2022-12-07T17:39:33;2.30;99.90
23083;DHT22;11709;52.420;10.538;2022-12-07T17:43:35;2.40;99.90
23083;DHT22;11709;52.420;10.538;2022-12-07T17:47:38;2.50;99.90
23083;DHT22;11709;52.420;10.538;2022-12-07T17:51:41;2.50;99.90
23083;DHT22;11709;52.420;10.538;2022-12-07T17:56:02;2.40;99.90
23083;DHT22;11709;52.420;10.538;2022-12-07T18:00:06;2.40;99.90
23083;DHT22;11709;52.420;10.538;2022-12-07T18:04:09;2.50;99.90
23083;DHT22;11709;52.420;10.538;2022-12-07T18:08:11;2.40;99.90
23083;DHT22;11709;52.420;10.538;2022-12-07T18:12:14;2.40;99.90
23083;DHT22;11709;52.420;10.538;2022-12-07T18:16:21;2.50;99.90
23083;DHT22;11709;52.420;10.538;2022-12-07T18:20:24;2.50;99.90
23083;DHT22;11709;52.420;10.538;2022-12-07T18:24:27;2.40;99.90
23083;DHT22;11709;52.420;10.538;2022-12-07T18:28:30;2.50;99.90
23083;DHT22;11709;52.420;10.538;2022-12-07T18:32:32;2.50;99.90
23083;DHT22;11709;52.420;10.538;2022-12-07T18:36:35;2.50;99.90
23083;DHT22;11709;52.420;10.538;2022-12-07T18:40:38;2.50;99.90
23083;DHT22;11709;52.420;10.538;2022-12-07T18:44:41;2.60;99.90
23083;DHT22;11709;52.420;10.538;2022-12-07T18:48:44;2.60;99.90
23083;DHT22;11709;52.420;10.538;2022-12-07T18:52:46;2.50;99.90
23083;DHT22;11709;52.420;10.538;2022-12-07T18:56:49;2.50;99.90
23083;DHT22;11709;52.420;10.538;2022-12-07T19:00:56;2.50;99.90
23083;DHT22;11709;52.420;10.538;2022-12-07T19:04:58;2.50;99.90
23083;DHT22;11709;52.420;10.538;2022-12-07T19:09:03;2.50;99.90
23083;DHT22;11709;52.420;10.538;2022-12-07T19:13:06;2.50;99.90
23083;DHT22;11709;52.420;10.538;2022-12-07T19:17:10;2.50;99.90
23083;DHT22;11709;52.420;10.538;2022-12-07T19:21:13;2.40;99.90
23083;DHT22;11709;52.420;10.538;2022-12-07T19:25:16;2.40;99.90
23083;DHT22;11709;52.420;10.538;2022-12-07T19:29:18;2.40;99.90
23083;DHT22;11709;52.420;10.538;2022-12-07T19:33:21;2.40;99.90
23083;DHT22;11709;52.420;10.538;2022-12-07T19:37:23;2.40;99.90
23083;DHT22;11709;52.420;10.538;2022-12-07T19:41:26;2.30;99.90
23083;DHT22;11709;52.420;10.538;2022-12-07T19:45:34;2.30;99.90
23083;DHT22;11709;52.420;10.538;2022-12-07T19:49:37;2.30;99.90
23083;DHT22;11709;52.420;10.538;2022-12-07T19:53:39;2.30;99.90
23083;DHT22;11709;52.420;10.538;2022-12-07T19:57:42;2.40;99.90
23083;DHT22;11709;52.420;10.538;2022-12-07T20:01:44;2.40;99.90
23083;DHT22;11709;52.420;10.538;2022-12-07T20:05:47;2.30;99.90
23083;DHT22;11709;52.420;10.538;2022-12-07T20:09:49;2.30;99.90
23083;DHT22;11709;52.420;10.538;2022-12-07T20:13:52;2.30;99.90
23083;DHT22;11709;52.420;10.538;2022-12-07T20:17:55;2.30;99.90
23083;DHT22;11709;52.420;10.538;2022-12-07T20:21:57;2.30;99.90
23083;DHT22;11709;52.420;10.538;2022-12-07T20:26:10;2.40;99.90
23083;DHT22;11709;52.420;10.538;2022-12-07T20:30:11;2.40;99.90
23083;DHT22;11709;52.420;10.538;2022-12-07T20:34:14;2.40;99.90
23083;DHT22;11709;52.420;10.538;2022-12-07T20:38:17;2.40;99.90
23083;DHT22;11709;52.420;10.538;2022-12-07T20:42:19;2.50;99.90
23083;DHT22;11709;52.420;10.538;2022-12-07T20:46:40;2.50;99.90
23083;DHT22;11709;52.420;10.538;2022-12-07T20:50:43;2.50;99.90
23083;DHT22;11709;52.420;10.538;2022-12-07T20:54:45;2.50;99.90
23083;DHT22;11709;52.420;10.538;2022-12-07T20:58:48;2.50;99.90
23083;DHT22;11709;52.420;10.538;2022-12-07T21:02:51;2.50;99.90
23083;DHT22;11709;52.420;10.538;2022-12-07T21:06:53;2.50;99.90
23083;DHT22;11709;52.420;10.538;2022-12-07T21:10:56;2.50;99.90
23083;DHT22;11709;52.420;10.538;2022-12-07T21:14:58;2.50;99.90
23083;DHT22;11709;52.420;10.538;2022-12-07T21:19:02;2.50;99.90
23083;DHT22;11709;52.420;10.538;2022-12-07T21:23:05;2.50;99.90
23083;DHT22;11709;52.420;10.538;2022-12-07T21:27:07;2.50;99.90
23083;DHT22;11709;52.420;10.538;2022-12-07T21:31:10;2.50;99.90
23083;DHT22;11709;52.420;10.538;2022-12-07T21:35:12;2.50;99.90
23083;DHT22;11709;52.420;10.538;2022-12-07T21:39:15;2.50;99.90
23083;DHT22;11709;52.420;10.538;2022-12-07T21:43:18;2.40;99.90
23083;DHT22;11709;52.420;10.538;2022-12-07T21:47:20;2.40;99.90
23083;DHT22;11709;52.420;10.538;2022-12-07T21:51:24;2.30;99.90
23083;DHT22;11709;52.420;10.538;2022-12-07T21:55:27;2.40;99.90
23083;DHT22;11709;52.420;10.538;2022-12-07T21:59:30;2.30;99.90
23083;DHT22;11709;52.420;10.538;2022-12-07T22:03:32;2.30;99.90
23083;DHT22;11709;52.420;10.538;2022-12-07T22:07:35;2.40;99.90
23083;DHT22;11709;52.420;10.538;2022-12-07T22:11:37;2.40;99.90
23083;DHT22;11709;52.420;10.538;2022-12-07T22:15:40;2.50;99.90
23083;DHT22;11709;52.420;10.538;2022-12-07T22:19:43;2.50;99.90
23083;DHT22;11709;52.420;10.538;2022-12-07T22:23:46;2.50;99.90
23083;DHT22;11709;52.420;10.538;2022-12-07T22:27:48;2.60;99.90
23083;DHT22;11709;52.420;10.538;2022-12-07T22:31:51;2.60;99.90
23083;DHT22;11709;52.420;10.538;2022-12-07T22:35:53;2.70;99.90
23083;DHT22;11709;52.420;10.538;2022-12-07T22:39:56;2.70;99.90
23083;DHT22;11709;52.420;10.538;2022-12-07T22:43:59;2.70;99.90
23083;DHT22;11709;52.420;10.538;2022-12-07T22:48:02;2.70;99.90
23083;DHT22;11709;52.420;10.538;2022-12-07T22:52:05;2.70;99.90
23083;DHT22;11709;52.420;10.538;2022-12-07T22:56:07;2.80;99.90
23083;DHT22;11709;52.420;10.538;2022-12-07T23:00:10;2.80;99.90
23083;DHT22;11709;52.420;10.538;2022-12-07T23:04:14;2.50;99.90
23083;DHT22;11709;52.420;10.538;2022-12-07T23:08:16;2.80;99.90
23083;DHT22;11709;52.420;10.538;2022-12-07T23:12:19;2.80;99.90
23083;DHT22;11709;52.420;10.538;2022-12-07T23:16:39;2.80;99.90
23083;DHT22;11709;52.420;10.538;2022-12-07T23:20:42;2.90;99.90
23083;DHT22;11709;52.420;10.538;2022-12-07T23:24:44;2.90;99.90
23083;DHT22;11709;52.420;10.538;2022-12-07T23:28:47;2.90;99.90
23083;DHT22;11709;52.420;10.538;2022-12-07T23:32:49;2.90;99.90
23083;DHT22;11709;52.420;10.538;2022-12-07T23:36:52;3.00;99.90
23083;DHT22;11709;52.420;10.538;2022-12-07T23:40:54;2.90;99.90
23083;DHT22;11709;52.420;10.538;2022-12-07T23:44:57;3.00;99.90
23083;DHT22;11709;52.420;10.538;2022-12-07T23:49:01;3.00;99.90
23083;DHT22;11709;52.420;10.538;2022-12-07T23:53:04;3.00;99.90
23083;DHT22;11709;52.420;10.538;2022-12-07T23:57:07;3.00;99.90
